createdAt,value
2023-02-22T00:01:53.238Z,101323.06
2023-02-22T00:04:25.044Z,101325.38
2023-02-22T00:07:02.072Z,101324.91
2023-02-22T00:09:34.753Z,101328.03
2023-02-22T00:12:05.346Z,101325.56
2023-02-22T00:14:35.447Z,101325.06
2023-02-22T00:17:05.972Z,101318.16
2023-02-22T00:19:36.306Z,101318.16
2023-02-22T00:22:07.445Z,101316.88
2023-02-22T00:24:39.390Z,101322.78
2023-02-22T00:27:10.619Z,101313.91
2023-02-22T00:29:41.515Z,101313.91
2023-02-22T00:32:12.132Z,101312.25
2023-02-22T00:34:44.125Z,101306.97
2023-02-22T00:37:16.339Z,101310.13
2023-02-22T00:39:51.086Z,101306.47
2023-02-22T00:42:22.555Z,101301.22
2023-02-22T00:44:53.178Z,101306.00
2023-02-22T00:47:23.742Z,101303.53
2023-02-22T00:49:54.387Z,101307.47
2023-02-22T00:52:25.519Z,101302.22
2023-02-22T00:54:58.287Z,101301.41
2023-02-22T00:57:28.439Z,101302.88
2023-02-22T00:59:59.228Z,101306.84
2023-02-22T01:02:29.866Z,101308.00
2023-02-22T01:05:00.458Z,101297.13
2023-02-22T01:07:30.572Z,101297.47
2023-02-22T01:10:02.813Z,101302.22
2023-02-22T01:12:33.476Z,101299.75
2023-02-22T01:15:04.988Z,101292.53
2023-02-22T01:17:35.737Z,101298.47
2023-02-22T01:20:13.006Z,101295.66
2023-02-22T01:22:43.526Z,101283.97
2023-02-22T01:25:21.678Z,101294.34
2023-02-22T01:27:53.886Z,101283.47
2023-02-22T01:30:26.735Z,101287.91
2023-02-22T01:33:00.134Z,101293.00
2023-02-22T01:35:34.144Z,101295.00
2023-02-22T01:38:04.704Z,101287.75
2023-02-22T01:40:40.596Z,101281.34
2023-02-22T01:43:27.761Z,101282.50
2023-02-22T01:46:03.822Z,101282.81
2023-02-22T01:48:45.258Z,101276.75
2023-02-22T01:51:20.489Z,101277.91
2023-02-22T01:53:56.560Z,101281.00
2023-02-22T01:56:32.836Z,101281.34
2023-02-22T01:59:09.968Z,101281.69
2023-02-22T02:01:45.077Z,101273.31
2023-02-22T02:04:21.825Z,101282.00
2023-02-22T02:06:53.423Z,101273.94
2023-02-22T02:09:35.012Z,101271.50
2023-02-22T02:12:11.503Z,101271.00
2023-02-22T02:14:44.503Z,101271.00
2023-02-22T02:17:19.891Z,101272.09
2023-02-22T02:20:12.072Z,101267.66
2023-02-22T02:22:54.382Z,101265.22
2023-02-22T02:26:15.423Z,101261.91
2023-02-22T02:29:41.348Z,101257.81
2023-02-22T02:32:39.228Z,101263.72
2023-02-22T02:35:22.587Z,101263.72
2023-02-22T02:38:04.684Z,101261.25
2023-02-22T02:40:43.859Z,101262.06
2023-02-22T02:43:26.928Z,101254.00
2023-02-22T02:46:07.220Z,101257.97
2023-02-22T02:48:46.130Z,101253.50
2023-02-22T02:51:18.900Z,101249.06
2023-02-22T02:53:54.081Z,101251.06
2023-02-22T02:56:24.821Z,101249.41
2023-02-22T02:58:56.178Z,101246.63
2023-02-22T03:01:53.235Z,101248.56
2023-02-22T03:07:28.876Z,101242.81
2023-02-22T03:10:35.181Z,101243.97
2023-02-22T03:13:16.747Z,101243.50
2023-02-22T03:16:04.299Z,101247.44
2023-02-22T03:18:52.221Z,101241.00
2023-02-22T03:21:34.231Z,101244.16
2023-02-22T03:24:15.251Z,101239.38
2023-02-22T03:26:53.039Z,101238.06
2023-02-22T03:29:28.794Z,101242.84
2023-02-22T03:32:02.460Z,101246.78
2023-02-22T03:34:41.329Z,101243.47
2023-02-22T03:37:20.464Z,101237.09
2023-02-22T03:39:55.936Z,101244.63
2023-02-22T03:42:34.455Z,101237.41
2023-02-22T03:45:10.589Z,101241.34
2023-02-22T03:47:46.787Z,101232.13
2023-02-22T03:50:23.369Z,101232.47
2023-02-22T03:52:56.509Z,101243.97
2023-02-22T03:55:29.428Z,101245.97
2023-02-22T03:58:05.195Z,101243.47
2023-02-22T04:00:50.812Z,101238.22
2023-02-22T04:03:25.843Z,101243.31
2023-02-22T04:05:56.048Z,101238.06
2023-02-22T04:08:28.158Z,101240.00
2023-02-22T04:10:59.070Z,101237.56
2023-02-22T04:13:30.467Z,101244.28
2023-02-22T04:16:07.236Z,101246.28
2023-02-22T04:18:37.731Z,101245.78
2023-02-22T04:21:09.652Z,101248.56
2023-02-22T04:23:43.915Z,101250.53
2023-02-22T04:26:14.921Z,101250.06
2023-02-22T04:28:44.850Z,101256.44
2023-02-22T04:31:15.572Z,101252.00
2023-02-22T04:33:46.902Z,101253.16
2023-02-22T04:36:17.779Z,101255.13
2023-02-22T04:38:50.990Z,101259.56
2023-02-22T04:41:25.040Z,101258.75
2023-02-22T04:43:59.425Z,101257.94
2023-02-22T04:46:30.330Z,101258.75
2023-02-22T04:49:00.767Z,101262.69
2023-02-22T04:51:31.325Z,101267.13
2023-02-22T04:54:03.868Z,101275.19
2023-02-22T04:59:18.121Z,101275.03
2023-02-22T05:02:08.272Z,101272.09
2023-02-22T05:04:40.189Z,101271.91
2023-02-22T05:07:10.697Z,101274.22
2023-02-22T05:09:42.373Z,101279.00
2023-02-22T05:12:12.768Z,101279.03
2023-02-22T05:14:43.759Z,101274.25
2023-02-22T05:17:18.414Z,101277.56
2023-02-22T05:19:52.469Z,101274.13
2023-02-22T05:22:22.912Z,101281.03
2023-02-22T05:25:08.515Z,101276.38
2023-02-22T05:27:38.741Z,101278.16
2023-02-22T05:30:10.550Z,101282.25
2023-02-22T05:32:41.141Z,101284.69
2023-02-22T05:35:11.850Z,101270.03
2023-02-22T05:37:43.112Z,101276.06
2023-02-22T05:40:18.591Z,101271.75
2023-02-22T05:42:49.104Z,101265.41
2023-02-22T05:48:07.755Z,101271.34
2023-02-22T05:50:38.620Z,101268.34
2023-02-22T05:53:08.990Z,101273.34
2023-02-22T05:55:40.819Z,101271.09
2023-02-22T05:58:11.361Z,101278.75
2023-02-22T06:00:41.978Z,101263.13
2023-02-22T06:03:14.202Z,101270.84
2023-02-22T06:05:45.486Z,101273.69
2023-02-22T06:08:24.633Z,101266.44
2023-02-22T06:10:57.523Z,101266.84
2023-02-22T06:13:27.922Z,101270.38
2023-02-22T06:15:59.535Z,101266.78
2023-02-22T06:18:31.528Z,101268.81
2023-02-22T06:21:03.159Z,101262.75
2023-02-22T06:23:33.884Z,101271.91
2023-02-22T06:26:10.068Z,101264.16
2023-02-22T06:28:40.143Z,101259.63
2023-02-22T06:31:10.719Z,101262.28
2023-02-22T06:33:54.156Z,101257.03
2023-02-22T06:36:24.605Z,101252.53
2023-02-22T06:38:55.113Z,101261.34
2023-02-22T06:41:26.468Z,101253.22
2023-02-22T06:43:56.993Z,101247.94
2023-02-22T06:46:27.540Z,101260.34
2023-02-22T06:48:59.994Z,101258.66
2023-02-22T06:51:31.544Z,101246.91
2023-02-22T06:54:15.002Z,101243.94
2023-02-22T06:56:48.126Z,101249.91
2023-02-22T06:59:18.723Z,101250.56
2023-02-22T07:01:48.817Z,101242.75
2023-02-22T07:04:19.259Z,101244.22
2023-02-22T07:06:50.509Z,101246.03
2023-02-22T07:09:22.105Z,101243.44
2023-02-22T07:11:54.582Z,101238.81
2023-02-22T07:14:24.425Z,101239.81
2023-02-22T07:16:55.105Z,101241.28
2023-02-22T07:19:25.614Z,101243.91
2023-02-22T07:22:11.452Z,101248.91
2023-02-22T07:24:41.777Z,101233.34
2023-02-22T07:27:14.402Z,101226.69
2023-02-22T07:29:47.178Z,101230.50
2023-02-22T07:32:17.957Z,101222.22
2023-02-22T07:34:48.521Z,101222.84
2023-02-22T07:37:18.500Z,101224.19
2023-02-22T07:39:49.753Z,101219.16
2023-02-22T07:45:06.588Z,101209.38
2023-02-22T07:47:37.131Z,101212.34
2023-02-22T07:50:08.333Z,101208.50
2023-02-22T07:52:40.942Z,101216.28
2023-02-22T07:55:14.115Z,101206.69
2023-02-22T07:57:47.816Z,101203.59
2023-02-22T08:00:24.598Z,101206.13
2023-02-22T08:02:57.334Z,101203.81
2023-02-22T08:05:30.601Z,101206.78
2023-02-22T08:08:01.490Z,101205.28
2023-02-22T08:10:33.505Z,101199.75
2023-02-22T08:13:07.595Z,101199.09
2023-02-22T08:15:41.121Z,101198.34
2023-02-22T08:18:15.005Z,101204.50
2023-02-22T08:20:50.830Z,101202.53
2023-02-22T08:23:32.210Z,101202.25
2023-02-22T08:26:09.568Z,101187.47
2023-02-22T08:28:55.098Z,101201.66
2023-02-22T08:31:25.882Z,101198.50
2023-02-22T08:33:57.607Z,101199.38
2023-02-22T08:36:29.852Z,101201.88
2023-02-22T08:39:00.678Z,101199.94
2023-02-22T08:41:31.069Z,101193.16
2023-02-22T08:44:03.395Z,101194.03
2023-02-22T08:46:33.912Z,101191.25
2023-02-22T08:49:05.061Z,101190.50
2023-02-22T08:51:40.984Z,101191.38
2023-02-22T08:54:11.809Z,101184.97
2023-02-22T08:59:27.728Z,101180.53
2023-02-22T09:02:00.585Z,101182.97
2023-02-22T09:04:31.107Z,101177.72
2023-02-22T09:07:01.683Z,101171.63
2023-02-22T09:09:45.198Z,101174.00
2023-02-22T09:12:19.481Z,101172.75
2023-02-22T09:14:51.120Z,101160.59
2023-02-22T09:17:21.707Z,101165.34
2023-02-22T09:19:51.801Z,101158.47
2023-02-22T09:22:22.284Z,101161.22
2023-02-22T09:24:58.412Z,101161.59
2023-02-22T09:27:30.331Z,101157.06
2023-02-22T09:30:03.896Z,101152.94
2023-02-22T09:32:34.543Z,101154.88
2023-02-22T09:35:05.315Z,101149.19
2023-02-22T09:37:35.977Z,101142.22
2023-02-22T09:40:10.343Z,101147.69
2023-02-22T09:42:51.453Z,101136.28
2023-02-22T09:45:37.725Z,101139.44
2023-02-22T09:48:21.821Z,101134.91
2023-02-22T09:51:00.545Z,101136.84
2023-02-22T09:53:52.743Z,101133.56
2023-02-22T09:56:25.251Z,101129.06
2023-02-22T09:59:01.397Z,101122.53
2023-02-22T10:01:39.575Z,101119.22
2023-02-22T10:04:22.507Z,101119.50
2023-02-22T10:07:08.456Z,101113.34
2023-02-22T10:12:36.487Z,101102.66
2023-02-22T10:15:51.943Z,101104.59
2023-02-22T10:19:17.661Z,101104.44
2023-02-22T10:22:20.475Z,101099.91
2023-02-22T10:25:05.230Z,101098.66
2023-02-22T10:27:43.323Z,101094.94
2023-02-22T10:30:25.765Z,101080.72
2023-02-22T10:33:07.851Z,101083.75
2023-02-22T10:35:44.818Z,101084.34
2023-02-22T10:38:23.981Z,101091.84
2023-02-22T10:41:00.549Z,101082.88
2023-02-22T10:43:31.740Z,101090.00
2023-02-22T10:46:07.697Z,101082.66
2023-02-22T10:48:42.743Z,101083.75
2023-02-22T10:51:15.514Z,101078.41
2023-02-22T10:53:47.113Z,101070.25
2023-02-22T10:56:22.395Z,101067.78
2023-02-22T10:59:00.235Z,101064.41
2023-02-22T11:01:41.150Z,101063.56
2023-02-22T11:04:20.887Z,101059.03
2023-02-22T11:07:11.274Z,101060.47
2023-02-22T11:09:55.176Z,101053.50
2023-02-22T11:12:33.569Z,101052.53
2023-02-22T11:15:31.794Z,101058.47
2023-02-22T11:18:02.349Z,101050.28
2023-02-22T11:20:39.961Z,101043.75
2023-02-22T11:23:12.903Z,101047.66
2023-02-22T11:25:45.955Z,101046.78
2023-02-22T11:28:43.225Z,101045.03
2023-02-22T11:31:20.751Z,101050.16
2023-02-22T11:36:47.280Z,101050.00
2023-02-22T11:39:29.991Z,101043.91
2023-02-22T11:42:00.881Z,101036.53
2023-02-22T11:44:33.691Z,101032.81
2023-02-22T11:47:07.467Z,101035.16
2023-02-22T11:52:35.310Z,101033.03
2023-02-22T11:55:32.935Z,101036.56
2023-02-22T11:58:48.157Z,101028.03
2023-02-22T12:01:34.120Z,101032.38
2023-02-22T12:04:52.338Z,101027.84
2023-02-22T12:07:45.017Z,101035.03
2023-02-22T12:10:44.864Z,101041.38
2023-02-22T12:14:06.035Z,101030.03
2023-02-22T12:16:55.128Z,101036.41
2023-02-22T12:19:36.638Z,101039.56
2023-02-22T12:22:13.103Z,101036.25
2023-02-22T12:24:57.953Z,101042.25
2023-02-22T12:27:45.091Z,101043.44
2023-02-22T12:30:24.042Z,101045.78
2023-02-22T12:32:59.537Z,101042.56
2023-02-22T12:35:36.113Z,101035.63
2023-02-22T12:38:15.291Z,101039.63
2023-02-22T12:40:57.652Z,101034.38
2023-02-22T12:43:36.739Z,101034.72
2023-02-22T12:46:13.917Z,101035.91
2023-02-22T12:48:54.909Z,101035.06
2023-02-22T12:51:41.570Z,101039.09
2023-02-22T12:54:23.697Z,101039.09
2023-02-22T12:57:01.878Z,101037.47
2023-02-22T12:59:41.531Z,101033.81
2023-02-22T13:02:23.495Z,101029.34
2023-02-22T13:04:54.161Z,101038.97
2023-02-22T13:07:48.005Z,101037.72
2023-02-22T13:10:46.403Z,101036.81
2023-02-22T13:13:26.820Z,101038.00
2023-02-22T13:16:10.475Z,101036.38
2023-02-22T13:18:51.786Z,101043.53
2023-02-22T13:21:34.422Z,101046.69
2023-02-22T13:24:17.349Z,101042.63
2023-02-22T13:26:56.822Z,101046.13
2023-02-22T13:29:34.649Z,101040.03
2023-02-22T13:32:52.816Z,101054.84
2023-02-22T13:35:58.553Z,101045.50
2023-02-22T13:39:16.360Z,101047.03
2023-02-22T13:42:10.629Z,101048.59
2023-02-22T13:45:31.363Z,101039.69
2023-02-22T13:48:30.689Z,101039.59
2023-02-22T13:51:18.176Z,101038.75
2023-02-22T13:53:59.778Z,101042.72
2023-02-22T13:56:32.137Z,101042.31
2023-02-22T13:59:06.245Z,101045.47
2023-02-22T14:01:49.377Z,101043.81
2023-02-22T14:04:47.323Z,101041.72
2023-02-22T14:07:57.322Z,101044.88
2023-02-22T14:10:52.577Z,101043.59
2023-02-22T14:13:27.228Z,101039.97
2023-02-22T14:16:29.773Z,101044.78
2023-02-22T14:19:18.714Z,101050.38
2023-02-22T14:22:04.319Z,101049.59
2023-02-22T14:24:48.138Z,101049.94
2023-02-22T14:27:20.413Z,101043.88
2023-02-22T14:30:00.826Z,101046.31
2023-02-22T14:32:36.240Z,101048.28
2023-02-22T14:35:26.526Z,101052.31
2023-02-22T14:38:05.229Z,101053.47
2023-02-22T14:40:40.679Z,101049.03
2023-02-22T14:43:20.317Z,101047.38
2023-02-22T14:45:56.378Z,101060.97
2023-02-22T14:48:39.829Z,101063.78
2023-02-22T14:51:22.360Z,101057.69
2023-02-22T14:54:05.216Z,101066.50
2023-02-22T14:56:48.028Z,101056.44
2023-02-22T14:59:24.792Z,101058.44
2023-02-22T15:02:11.666Z,101064.41
2023-02-22T15:04:44.348Z,101069.22
2023-02-22T15:07:36.151Z,101067.09
2023-02-22T15:10:23.144Z,101067.91
2023-02-22T15:13:11.132Z,101066.63
2023-02-22T15:15:48.842Z,101074.59
2023-02-22T15:18:30.564Z,101073.00
2023-02-22T15:21:08.162Z,101066.06
2023-02-22T15:23:50.004Z,101076.50
2023-02-22T15:26:29.634Z,101078.06
2023-02-22T15:29:02.429Z,101076.41
2023-02-22T15:31:36.633Z,101083.19
2023-02-22T15:34:24.693Z,101086.34
2023-02-22T15:36:58.172Z,101085.53
2023-02-22T15:39:33.465Z,101088.72
2023-02-22T15:42:19.836Z,101091.06
2023-02-22T15:44:54.328Z,101097.06
2023-02-22T15:47:29.629Z,101106.66
2023-02-22T15:50:24.329Z,101098.56
2023-02-22T15:53:00.105Z,101099.28
2023-02-22T15:55:35.043Z,101108.88
2023-02-22T15:58:29.170Z,101104.06
2023-02-22T16:01:05.379Z,101114.03
2023-02-22T16:03:45.364Z,101113.19
2023-02-22T16:06:30.986Z,101114.72
2023-02-22T16:09:09.859Z,101115.91
2023-02-22T16:11:44.670Z,101115.44
2023-02-22T16:14:46.370Z,101115.78
2023-02-22T16:17:32.693Z,101120.13
2023-02-22T16:20:05.789Z,101124.13
2023-02-22T16:22:38.560Z,101123.66
2023-02-22T16:25:27.959Z,101131.28
2023-02-22T16:28:06.650Z,101138.06
2023-02-22T16:30:41.785Z,101132.78
2023-02-22T16:33:17.082Z,101142.38
2023-02-22T16:35:52.492Z,101148.00
2023-02-22T16:38:24.459Z,101146.34
2023-02-22T16:40:58.917Z,101145.50
2023-02-22T16:43:33.802Z,101146.69
2023-02-22T16:46:07.538Z,101139.41
2023-02-22T16:48:39.268Z,101151.84
2023-02-22T16:51:22.021Z,101140.94
2023-02-22T16:53:55.709Z,101146.94
2023-02-22T16:56:33.011Z,101146.09
2023-02-22T16:59:09.294Z,101147.28
2023-02-22T17:01:42.104Z,101139.19
2023-02-22T17:04:21.826Z,101139.56
2023-02-22T17:07:05.149Z,101149.16
2023-02-22T17:09:36.324Z,101138.28
2023-02-22T17:12:07.831Z,101139.44
2023-02-22T17:14:41.377Z,101147.03
2023-02-22T17:17:19.298Z,101143.41
2023-02-22T17:19:49.547Z,101144.09
2023-02-22T17:22:24.726Z,101137.69
2023-02-22T17:24:54.973Z,101146.44
2023-02-22T17:27:25.337Z,101145.63
2023-02-22T17:29:56.438Z,101137.56
2023-02-22T17:32:29.459Z,101145.53
2023-02-22T17:35:06.893Z,101140.22
2023-02-22T17:37:37.837Z,101151.03
2023-02-22T17:40:09.621Z,101142.59
2023-02-22T17:42:40.480Z,101147.75
2023-02-22T17:45:14.330Z,101144.09
2023-02-22T17:47:47.289Z,101146.09
2023-02-22T17:50:18.053Z,101144.81
2023-02-22T17:52:48.600Z,101153.25
2023-02-22T17:55:19.399Z,101151.59
2023-02-22T17:57:57.402Z,101150.75
2023-02-22T18:00:35.572Z,101149.94
2023-02-22T18:03:14.114Z,101150.28
2023-02-22T18:05:46.860Z,101152.28
2023-02-22T18:08:17.725Z,101157.09
2023-02-22T18:10:53.277Z,101156.25
2023-02-22T18:13:25.195Z,101156.63
2023-02-22T18:15:57.863Z,101152.97
2023-02-22T18:18:30.908Z,101156.94
2023-02-22T18:21:01.856Z,101164.56
2023-02-22T18:23:34.282Z,101154.50
2023-02-22T18:26:12.479Z,101162.13
2023-02-22T18:28:43.927Z,101158.00
2023-02-22T18:31:17.227Z,101156.81
2023-02-22T18:33:52.003Z,101155.19
2023-02-22T18:36:26.171Z,101161.97
2023-02-22T18:38:58.551Z,101155.53
2023-02-22T18:41:30.293Z,101152.75
2023-02-22T18:44:01.548Z,101155.91
2023-02-22T18:46:32.358Z,101153.09
2023-02-22T18:49:08.204Z,101161.53
2023-02-22T18:51:40.515Z,101155.06
2023-02-22T18:54:10.528Z,101159.03
2023-02-22T18:56:41.886Z,101164.66
2023-02-22T18:59:15.145Z,101157.06
2023-02-22T19:01:49.564Z,101165.81
2023-02-22T19:04:22.300Z,101169.47
2023-02-22T19:06:52.929Z,101158.59
2023-02-22T19:09:23.584Z,101160.56
2023-02-22T19:11:55.096Z,101161.72
2023-02-22T19:14:25.865Z,101167.34
2023-02-22T19:17:01.832Z,101165.69
2023-02-22T19:19:34.339Z,101171.31
2023-02-22T19:22:05.208Z,101166.06
2023-02-22T19:24:35.494Z,101165.25
2023-02-22T19:27:06.932Z,101168.38
2023-02-22T19:29:40.601Z,101176.47
2023-02-22T19:32:13.195Z,101167.59
2023-02-22T19:34:46.102Z,101170.38
2023-02-22T19:37:19.141Z,101181.94
2023-02-22T19:39:49.076Z,101175.53
2023-02-22T19:42:19.744Z,101176.69
2023-02-22T19:44:52.982Z,101171.06
2023-02-22T19:47:24.100Z,101176.22
2023-02-22T19:49:59.155Z,101175.41
2023-02-22T19:52:31.362Z,101179.38
2023-02-22T19:55:02.420Z,101174.88
2023-02-22T19:57:33.621Z,101170.44
2023-02-22T20:00:11.775Z,101170.44
2023-02-22T20:02:44.286Z,101160.72
2023-02-22T20:05:18.386Z,101166.34
2023-02-22T20:07:48.656Z,101167.50
2023-02-22T20:10:19.582Z,101167.88
2023-02-22T20:12:50.120Z,101161.06
2023-02-22T20:15:22.387Z,101171.47
2023-02-22T20:17:53.676Z,101163.06
2023-02-22T20:20:28.985Z,101174.28
2023-02-22T20:23:00.794Z,101160.25
2023-02-22T20:25:31.317Z,101164.22
2023-02-22T20:28:02.177Z,101161.41
2023-02-22T20:30:34.059Z,101155.81
2023-02-22T20:33:05.408Z,101151.34
2023-02-22T20:35:39.576Z,101149.38
2023-02-22T20:38:12.005Z,101152.53
2023-02-22T20:40:44.209Z,101146.09
2023-02-22T20:43:14.271Z,101154.88
2023-02-22T20:45:44.966Z,101158.84
2023-02-22T20:48:15.248Z,101156.38
2023-02-22T20:50:47.400Z,101155.56
2023-02-22T20:53:18.183Z,101165.13
2023-02-22T20:55:52.838Z,101150.28
2023-02-22T20:58:23.393Z,101142.22
2023-02-22T21:00:55.368Z,101146.66
2023-02-22T21:03:26.035Z,101150.63
2023-02-22T21:05:58.754Z,101134.16
2023-02-22T21:08:33.196Z,101147.34
2023-02-22T21:11:04.513Z,101139.28
2023-02-22T21:13:35.216Z,101143.59
2023-02-22T21:16:06.791Z,101141.97
2023-02-22T21:18:37.673Z,101143.94
2023-02-22T21:21:12.609Z,101127.47
2023-02-22T21:23:44.136Z,101133.75
2023-02-22T21:26:19.545Z,101132.94
2023-02-22T21:28:51.499Z,101126.38
2023-02-22T21:31:24.729Z,101133.97
2023-02-22T21:33:58.111Z,101127.09
2023-02-22T21:36:32.475Z,101131.06
2023-02-22T21:39:08.926Z,101122.97
2023-02-22T21:41:41.092Z,101124.47
2023-02-22T21:44:11.980Z,101124.84
2023-02-22T21:46:43.107Z,101119.22
2023-02-22T21:49:14.163Z,101117.59
2023-02-22T21:51:47.247Z,101116.75
2023-02-22T21:54:17.683Z,101108.69
2023-02-22T21:56:48.642Z,101118.75
2023-02-22T21:59:23.001Z,101117.09
2023-02-22T22:01:56.779Z,101111.84
2023-02-22T22:04:31.615Z,101113.81
2023-02-22T22:07:04.883Z,101116.97
2023-02-22T22:09:42.285Z,101114.97
2023-02-22T22:12:14.634Z,101118.94
2023-02-22T22:14:46.284Z,101118.13
2023-02-22T22:17:16.710Z,101118.13
2023-02-22T22:19:49.476Z,101117.34
2023-02-22T22:22:23.591Z,101112.06
2023-02-22T22:24:55.448Z,101117.66
2023-02-22T22:27:26.081Z,101116.00
2023-02-22T22:29:57.731Z,101116.00
2023-02-22T22:32:27.895Z,101107.97
2023-02-22T22:34:59.953Z,101110.75
2023-02-22T22:37:35.011Z,101113.91
2023-02-22T22:40:07.102Z,101111.44
2023-02-22T22:42:37.830Z,101110.63
2023-02-22T22:45:12.266Z,101114.59
2023-02-22T22:47:46.405Z,101119.72
2023-02-22T22:50:19.875Z,101113.63
2023-02-22T22:52:53.333Z,101109.19
2023-02-22T22:55:25.397Z,101112.34
2023-02-22T22:57:57.176Z,101107.41
2023-02-22T23:00:32.188Z,101112.56
2023-02-22T23:03:02.576Z,101109.25
2023-02-22T23:05:33.114Z,101113.22
2023-02-22T23:08:11.006Z,101113.91
2023-02-22T23:10:43.828Z,101115.88
2023-02-22T23:13:16.040Z,101101.75
2023-02-22T23:15:49.047Z,101110.16
2023-02-22T23:18:20.966Z,101109.66
2023-02-22T23:20:55.628Z,101104.41
2023-02-22T23:23:30.084Z,101100.28
2023-02-22T23:26:11.979Z,101095.03
2023-02-22T23:28:52.825Z,101096.88
2023-02-22T23:31:23.534Z,101092.78
2023-02-22T23:33:56.222Z,101092.31
2023-02-22T23:36:27.753Z,101092.66
2023-02-22T23:38:59.760Z,101088.56
2023-02-22T23:41:30.500Z,101077.69
2023-02-22T23:44:00.475Z,101079.66
2023-02-22T23:46:33.745Z,101077.22
2023-02-22T23:49:05.890Z,101083.63
2023-02-22T23:51:39.718Z,101084.00
2023-02-22T23:54:15.589Z,101080.34
2023-02-22T23:56:50.700Z,101071.13
2023-02-22T23:59:21.294Z,101071.47
